createdAt,value
2023-04-05T00:01:27.713Z,100852.13
2023-04-05T00:04:01.125Z,100846.69
2023-04-05T00:06:31.850Z,100846.47
2023-04-05T00:09:01.866Z,100844.63
2023-04-05T00:11:32.041Z,100836.88
2023-04-05T00:14:02.202Z,100841.78
2023-04-05T00:16:32.319Z,100830.56
2023-04-05T00:19:02.366Z,100839.03
2023-04-05T00:21:30.897Z,100841.63
2023-04-05T00:23:59.895Z,100839.03
2023-04-05T00:26:28.898Z,100839.78
2023-04-05T00:28:57.422Z,100841.56
2023-04-05T00:31:26.120Z,100832.88
2023-04-05T00:33:56.318Z,100836.56
2023-04-05T00:36:25.409Z,100835.75
2023-04-05T00:38:53.940Z,100839.25
2023-04-05T00:41:22.738Z,100825.50
2023-04-05T00:43:51.367Z,100831.66
2023-04-05T00:46:20.115Z,100832.56
2023-04-05T00:48:49.490Z,100830.72
2023-04-05T00:51:20.565Z,100828.28
2023-04-05T00:53:53.107Z,100833.50
2023-04-05T00:56:23.270Z,100827.50
2023-04-05T00:58:53.583Z,100826.81
2023-04-05T01:01:24.170Z,100821.81
2023-04-05T01:04:00.171Z,100815.06
2023-04-05T01:06:43.925Z,100816.75
2023-04-05T01:09:24.669Z,100815.97
2023-04-05T01:11:57.000Z,100816.91
2023-04-05T01:14:25.707Z,100810.91
2023-04-05T01:16:58.420Z,100811.00
2023-04-05T01:19:30.352Z,100810.44
2023-04-05T01:22:22.713Z,100805.47
2023-04-05T01:25:03.040Z,100808.91
2023-04-05T01:27:50.465Z,100795.09
2023-04-05T01:30:24.224Z,100812.44
2023-04-05T01:33:02.898Z,100806.38
2023-04-05T01:35:39.063Z,100801.31
2023-04-05T01:38:11.159Z,100795.25
2023-04-05T01:40:40.053Z,100794.56
2023-04-05T01:43:15.719Z,100793.66
2023-04-05T01:45:47.250Z,100793.69
2023-04-05T01:48:16.340Z,100782.88
2023-04-05T01:50:45.014Z,100795.84
2023-04-05T01:53:13.568Z,100792.31
2023-04-05T01:55:42.089Z,100789.84
2023-04-05T01:58:10.828Z,100791.53
2023-04-05T02:00:39.556Z,100792.44
2023-04-05T02:03:10.137Z,100795.22
2023-04-05T02:05:38.668Z,100799.00
2023-04-05T02:08:07.166Z,100796.63
2023-04-05T02:10:35.786Z,100782.91
2023-04-05T02:13:04.260Z,100773.75
2023-04-05T02:15:34.354Z,100779.59
2023-04-05T02:18:04.061Z,100780.44
2023-04-05T02:20:34.849Z,100780.50
2023-04-05T02:23:03.513Z,100774.47
2023-04-05T02:25:32.003Z,100779.66
2023-04-05T02:28:00.540Z,100774.47
2023-04-05T02:30:29.300Z,100771.91
2023-04-05T02:32:58.216Z,100770.94
2023-04-05T02:35:26.898Z,100766.69
2023-04-05T02:37:57.317Z,100770.06
2023-04-05T02:40:25.993Z,100765.88
2023-04-05T02:42:54.605Z,100762.78
2023-04-05T02:45:28.110Z,100762.97
2023-04-05T02:47:56.820Z,100745.94
2023-04-05T02:50:25.756Z,100740.97
2023-04-05T02:52:54.336Z,100748.00
2023-04-05T02:55:25.085Z,100755.72
2023-04-05T02:57:53.566Z,100750.47
2023-04-05T03:00:22.699Z,100754.00
2023-04-05T03:02:51.416Z,100752.34
2023-04-05T03:05:20.989Z,100746.31
2023-04-05T03:07:51.046Z,100748.84
2023-04-05T03:10:22.590Z,100751.44
2023-04-05T03:12:52.892Z,100749.69
2023-04-05T03:15:21.611Z,100744.53
2023-04-05T03:17:50.128Z,100748.00
2023-04-05T03:20:18.744Z,100739.34
2023-04-05T03:22:47.264Z,100743.00
2023-04-05T03:25:19.241Z,100743.38
2023-04-05T03:27:47.705Z,100734.94
2023-04-05T03:30:17.840Z,100741.81
2023-04-05T03:32:46.390Z,100731.41
2023-04-05T03:35:17.182Z,100747.84
2023-04-05T03:37:45.770Z,100732.47
2023-04-05T03:40:15.493Z,100734.78
2023-04-05T03:42:44.609Z,100722.97
2023-04-05T03:45:13.340Z,100732.97
2023-04-05T03:47:43.630Z,100733.88
2023-04-05T03:50:12.468Z,100737.44
2023-04-05T03:52:40.933Z,100738.31
2023-04-05T03:55:10.138Z,100738.34
2023-04-05T03:57:39.604Z,100748.72
2023-04-05T04:00:14.624Z,100738.31
2023-04-05T04:02:48.020Z,100741.72
2023-04-05T04:05:18.249Z,100742.66
2023-04-05T04:07:47.505Z,100745.47
2023-04-05T04:10:18.754Z,100745.63
2023-04-05T04:12:47.342Z,100739.63
2023-04-05T04:15:16.089Z,100753.28
2023-04-05T04:17:46.211Z,100747.38
2023-04-05T04:20:15.571Z,100758.50
2023-04-05T04:22:44.047Z,100757.84
2023-04-05T04:25:15.118Z,100752.66
2023-04-05T04:27:46.910Z,100766.56
2023-04-05T04:30:16.897Z,100757.28
2023-04-05T04:32:52.338Z,100765.84
2023-04-05T04:35:25.306Z,100769.38
2023-04-05T04:37:58.061Z,100772.09
2023-04-05T04:40:29.602Z,100774.66
2023-04-05T04:43:00.525Z,100757.69
2023-04-05T04:45:29.297Z,100767.63
2023-04-05T04:48:00.224Z,100767.81
2023-04-05T04:50:29.214Z,100775.44
2023-04-05T04:52:57.818Z,100772.88
2023-04-05T04:55:27.748Z,100772.84
2023-04-05T04:57:57.022Z,100784.03
2023-04-05T05:00:26.294Z,100782.19
2023-04-05T05:02:54.909Z,100764.03
2023-04-05T05:05:24.818Z,100773.47
2023-04-05T05:07:53.968Z,100774.31
2023-04-05T05:10:22.720Z,100774.31
2023-04-05T05:12:51.960Z,100771.69
2023-04-05T05:15:21.068Z,100776.84
2023-04-05T05:17:53.995Z,100782.06
2023-04-05T05:20:22.837Z,100780.38
2023-04-05T05:22:52.824Z,100781.97
2023-04-05T05:25:21.875Z,100790.50
2023-04-05T05:27:51.262Z,100785.16
2023-04-05T05:30:20.963Z,100790.38
2023-04-05T05:32:49.520Z,100787.63
2023-04-05T05:35:18.172Z,100789.31
2023-04-05T05:37:46.685Z,100797.00
2023-04-05T05:40:16.920Z,100794.25
2023-04-05T05:42:45.334Z,100795.78
2023-04-05T05:45:14.027Z,100787.84
2023-04-05T05:47:43.042Z,100786.16
2023-04-05T05:50:15.543Z,100789.53
2023-04-05T05:52:43.981Z,100787.69
2023-04-05T05:55:12.413Z,100789.41
2023-04-05T05:57:42.426Z,100784.88
2023-04-05T06:00:11.975Z,100787.28
2023-04-05T06:02:40.825Z,100783.03
2023-04-05T06:05:09.814Z,100785.38
2023-04-05T06:07:39.140Z,100781.66
2023-04-05T06:10:08.611Z,100787.53
2023-04-05T06:12:37.216Z,100783.97
2023-04-05T06:15:08.367Z,100777.06
2023-04-05T06:17:42.143Z,100780.34
2023-04-05T06:20:11.932Z,100778.50
2023-04-05T06:22:42.020Z,100780.16
2023-04-05T06:25:13.182Z,100782.47
2023-04-05T06:27:44.865Z,100778.88
2023-04-05T06:30:16.153Z,100780.34
2023-04-05T06:32:44.829Z,100786.81
2023-04-05T06:35:14.680Z,100786.50
2023-04-05T06:37:43.551Z,100786.34
2023-04-05T06:40:12.591Z,100782.06
2023-04-05T06:42:41.286Z,100783.53
2023-04-05T06:45:10.951Z,100781.63
2023-04-05T06:47:43.080Z,100780.53
2023-04-05T06:50:12.243Z,100781.78
2023-04-05T06:52:41.342Z,100774.66
2023-04-05T06:55:10.566Z,100783.25
2023-04-05T06:57:39.466Z,100773.59
2023-04-05T07:00:11.928Z,100785.47
2023-04-05T07:02:42.015Z,100779.97
2023-04-05T07:05:10.924Z,100763.75
2023-04-05T07:07:42.705Z,100777.69
2023-04-05T07:10:12.608Z,100773.78
2023-04-05T07:12:41.651Z,100774.66
2023-04-05T07:15:12.412Z,100782.75
2023-04-05T07:17:43.499Z,100772.16
2023-04-05T07:20:14.453Z,100777.63
2023-04-05T07:22:42.861Z,100779.94
2023-04-05T07:25:12.076Z,100782.31
2023-04-05T07:27:41.018Z,100768.88
2023-04-05T07:30:14.869Z,100782.19
2023-04-05T07:32:45.105Z,100784.66
2023-04-05T07:35:14.055Z,100787.25
2023-04-05T07:37:42.941Z,100787.94
2023-04-05T07:40:13.172Z,100795.69
2023-04-05T07:42:42.216Z,100790.28
2023-04-05T07:45:11.791Z,100787.69
2023-04-05T07:47:40.359Z,100792.66
2023-04-05T07:50:12.436Z,100804.72
2023-04-05T07:52:43.282Z,100786.41
2023-04-05T07:55:12.501Z,100803.44
2023-04-05T07:57:41.281Z,100801.59
2023-04-05T08:00:13.707Z,100796.34
2023-04-05T08:02:42.837Z,100803.94
2023-04-05T08:05:13.034Z,100803.59
2023-04-05T08:07:41.845Z,100796.41
2023-04-05T08:10:11.184Z,100800.72
2023-04-05T08:12:39.752Z,100795.06
2023-04-05T08:15:09.093Z,100792.09
2023-04-05T08:17:37.682Z,100793.78
2023-04-05T08:20:07.702Z,100797.66
2023-04-05T08:22:37.675Z,100788.56
2023-04-05T08:25:06.805Z,100793.56
2023-04-05T08:27:35.368Z,100780.38
2023-04-05T08:30:04.288Z,100785.34
2023-04-05T08:32:33.315Z,100787.78
2023-04-05T08:35:02.048Z,100786.75
2023-04-05T08:37:30.637Z,100789.47
2023-04-05T08:40:00.888Z,100778.25
2023-04-05T08:42:33.388Z,100778.13
2023-04-05T08:45:04.963Z,100780.13
2023-04-05T08:47:35.682Z,100786.50
2023-04-05T08:50:05.704Z,100778.19
2023-04-05T08:52:38.192Z,100780.16
2023-04-05T08:55:09.027Z,100774.44
2023-04-05T08:57:41.014Z,100777.38
2023-04-05T09:00:14.366Z,100775.31
2023-04-05T09:02:47.039Z,100778.28
2023-04-05T09:05:17.971Z,100777.16
2023-04-05T09:07:48.204Z,100772.34
2023-04-05T09:10:20.898Z,100780.00
2023-04-05T09:12:50.807Z,100775.28
2023-04-05T09:15:24.538Z,100775.34
2023-04-05T09:17:53.745Z,100767.44
2023-04-05T09:20:22.416Z,100768.22
2023-04-05T09:22:51.028Z,100767.91
2023-04-05T09:25:40.035Z,100770.44
2023-04-05T09:28:09.178Z,100762.59
2023-04-05T09:30:38.394Z,100770.59
2023-04-05T09:33:11.318Z,100757.47
2023-04-05T09:35:39.826Z,100760.03
2023-04-05T09:38:08.378Z,100763.19
2023-04-05T09:40:45.692Z,100764.94
2023-04-05T09:43:15.097Z,100764.75
2023-04-05T09:45:46.298Z,100748.06
2023-04-05T09:48:14.969Z,100757.00
2023-04-05T09:50:43.888Z,100756.91
2023-04-05T09:53:17.064Z,100754.69
2023-04-05T09:55:47.098Z,100753.94
2023-04-05T09:58:20.316Z,100756.38
2023-04-05T10:01:00.004Z,100751.13
2023-04-05T10:03:48.531Z,100741.13
2023-04-05T10:06:18.198Z,100743.25
2023-04-05T10:08:48.459Z,100751.94
2023-04-05T10:11:20.099Z,100745.34
2023-04-05T10:13:51.350Z,100740.50
2023-04-05T10:16:23.110Z,100738.50
2023-04-05T10:18:54.822Z,100744.59
2023-04-05T10:21:25.403Z,100748.16
2023-04-05T10:24:12.379Z,100747.09
2023-04-05T10:26:54.372Z,100743.00
2023-04-05T10:29:32.368Z,100749.59
2023-04-05T10:32:09.215Z,100747.38
2023-04-05T10:34:44.663Z,100737.63
2023-04-05T10:37:24.898Z,100744.69
2023-04-05T10:39:54.368Z,100737.25
2023-04-05T10:42:28.685Z,100725.06
2023-04-05T10:45:04.982Z,100728.09
2023-04-05T10:47:38.431Z,100725.06
2023-04-05T10:50:14.038Z,100722.56
2023-04-05T10:52:43.934Z,100715.66
2023-04-05T10:55:13.377Z,100706.81
2023-04-05T10:57:44.280Z,100695.44
2023-04-05T11:00:14.955Z,100694.63
2023-04-05T11:02:44.146Z,100710.84
2023-04-05T11:05:31.975Z,100708.06
2023-04-05T11:08:04.194Z,100700.94
2023-04-05T11:10:33.622Z,100690.22
2023-04-05T11:13:08.966Z,100695.84
2023-04-05T11:15:38.199Z,100689.53
2023-04-05T11:18:09.006Z,100676.63
2023-04-05T11:20:45.590Z,100684.69
2023-04-05T11:23:16.144Z,100679.41
2023-04-05T11:25:51.570Z,100692.09
2023-04-05T11:28:27.756Z,100691.72
2023-04-05T11:30:59.232Z,100694.88
2023-04-05T11:34:10.283Z,100695.28
2023-04-05T11:36:42.333Z,100683.66
2023-04-05T11:39:29.887Z,100686.50
2023-04-05T11:42:02.727Z,100688.91
2023-04-05T11:44:42.563Z,100683.91
2023-04-05T11:47:11.898Z,100689.00
2023-04-05T11:49:42.584Z,100667.31
2023-04-05T11:52:17.125Z,100686.00
2023-04-05T11:54:47.873Z,100685.94
2023-04-05T11:57:19.980Z,100670.38
2023-04-05T11:59:51.908Z,100681.63
2023-04-05T12:02:21.408Z,100681.03
2023-04-05T12:04:57.759Z,100682.84
2023-04-05T12:07:29.303Z,100677.13
2023-04-05T12:10:16.346Z,100680.50
2023-04-05T12:12:48.308Z,100674.66
2023-04-05T12:15:19.796Z,100683.53
2023-04-05T12:17:50.275Z,100678.34
2023-04-05T12:20:21.171Z,100675.97
2023-04-05T12:22:51.469Z,100675.72
2023-04-05T12:25:21.252Z,100674.44
2023-04-05T12:27:49.973Z,100669.16
2023-04-05T12:30:21.391Z,100664.13
2023-04-05T12:32:53.014Z,100659.53
2023-04-05T12:35:24.763Z,100650.53
2023-04-05T12:37:53.862Z,100646.50
2023-04-05T12:40:24.819Z,100651.06
2023-04-05T12:42:53.991Z,100653.38
2023-04-05T12:45:25.356Z,100654.91
2023-04-05T12:47:55.187Z,100650.97
2023-04-05T12:50:31.756Z,100658.88
2023-04-05T12:53:02.086Z,100655.97
2023-04-05T12:55:32.183Z,100646.06
2023-04-05T12:58:02.001Z,100661.88
2023-04-05T13:00:33.039Z,100661.53
2023-04-05T13:03:01.641Z,100660.78
2023-04-05T13:05:33.609Z,100658.25
2023-04-05T13:08:02.296Z,100659.69
2023-04-05T13:10:31.190Z,100660.41
2023-04-05T13:13:00.102Z,100659.66
2023-04-05T13:15:28.782Z,100650.72
2023-04-05T13:17:58.854Z,100649.06
2023-04-05T13:20:27.495Z,100660.41
2023-04-05T13:22:56.174Z,100634.13
2023-04-05T13:25:24.873Z,100648.50
2023-04-05T13:27:56.635Z,100654.59
2023-04-05T13:30:25.237Z,100650.69
2023-04-05T13:32:54.051Z,100640.50
2023-04-05T13:35:24.155Z,100649.81
2023-04-05T13:37:52.728Z,100649.47
2023-04-05T13:40:21.320Z,100642.56
2023-04-05T13:42:50.113Z,100652.03
2023-04-05T13:45:18.812Z,100658.22
2023-04-05T13:47:47.311Z,100650.19
2023-04-05T13:50:16.176Z,100658.63
2023-04-05T13:52:46.752Z,100674.56
2023-04-05T13:55:15.528Z,100676.00
2023-04-05T13:57:44.101Z,100676.94
2023-04-05T14:00:14.066Z,100682.22
2023-04-05T14:03:18.734Z,100676.19
2023-04-05T14:06:02.353Z,100672.63
2023-04-05T14:08:55.426Z,100666.06
2023-04-05T14:11:29.422Z,100648.91
2023-04-05T14:13:58.323Z,100656.81
2023-04-05T14:16:27.049Z,100649.63
2023-04-05T14:18:55.907Z,100654.41
2023-04-05T14:21:26.134Z,100648.09
2023-04-05T14:23:57.362Z,100647.47
2023-04-05T14:26:27.192Z,100647.13
2023-04-05T14:28:55.991Z,100640.75
2023-04-05T14:31:26.654Z,100645.53
2023-04-05T14:33:55.433Z,100652.72
2023-04-05T14:36:24.440Z,100651.00
2023-04-05T14:38:53.300Z,100652.38
2023-04-05T14:41:23.259Z,100657.75
2023-04-05T14:43:51.800Z,100653.69
2023-04-05T14:46:20.459Z,100657.53
2023-04-05T14:48:49.300Z,100651.78
2023-04-05T14:51:18.315Z,100651.91
2023-04-05T14:53:46.880Z,100648.41
2023-04-05T14:56:15.782Z,100639.06
2023-04-05T14:58:46.200Z,100655.53
2023-04-05T15:01:15.145Z,100649.38
2023-04-05T15:03:45.006Z,100632.66
2023-04-05T15:06:13.845Z,100634.16
2023-04-05T15:08:42.422Z,100646.09
2023-04-05T15:11:11.664Z,100647.00
2023-04-05T15:13:41.061Z,100637.09
2023-04-05T15:16:11.925Z,100632.44
2023-04-05T15:18:41.208Z,100629.16
2023-04-05T15:21:11.550Z,100630.25
2023-04-05T15:23:40.385Z,100629.88
2023-04-05T15:26:08.892Z,100639.34
2023-04-05T15:28:37.459Z,100634.25
2023-04-05T15:31:06.498Z,100627.34
2023-04-05T15:33:36.802Z,100621.03
2023-04-05T15:36:09.213Z,100631.81
2023-04-05T15:38:37.858Z,100623.84
2023-04-05T15:41:06.585Z,100624.50
2023-04-05T15:43:35.251Z,100619.97
2023-04-05T15:46:05.140Z,100621.09
2023-04-05T15:48:33.742Z,100621.06
2023-04-05T15:52:03.358Z,100625.84
2023-04-05T15:54:33.456Z,100621.44
2023-04-05T15:57:02.156Z,100626.41
2023-04-05T15:59:30.844Z,100621.31
2023-04-05T16:01:59.545Z,100613.78
2023-04-05T16:04:29.029Z,100628.47
2023-04-05T16:06:58.343Z,100626.72
2023-04-05T16:09:27.803Z,100624.34
2023-04-05T16:11:59.415Z,100622.84
2023-04-05T16:14:28.201Z,100612.97
2023-04-05T16:16:56.992Z,100636.69
2023-04-05T16:19:25.603Z,100638.88
2023-04-05T16:21:54.703Z,100627.41
2023-04-05T16:24:23.478Z,100641.56
2023-04-05T16:26:52.655Z,100639.63
2023-04-05T16:29:22.690Z,100640.34
2023-04-05T16:31:51.421Z,100637.03
2023-04-05T16:34:20.083Z,100635.63
2023-04-05T16:36:48.852Z,100637.41
2023-04-05T16:39:17.363Z,100648.59
2023-04-05T16:41:45.951Z,100638.06
2023-04-05T16:44:14.446Z,100637.34
2023-04-05T16:46:46.313Z,100642.22
2023-04-05T16:49:16.075Z,100638.16
2023-04-05T16:51:44.582Z,100648.38
2023-04-05T16:54:13.207Z,100642.41
2023-04-05T16:56:41.795Z,100640.50
2023-04-05T16:59:10.498Z,100645.06
2023-04-05T17:01:39.651Z,100645.28
2023-04-05T17:04:09.680Z,100644.34
2023-04-05T17:06:38.422Z,100646.03
2023-04-05T17:09:07.059Z,100649.50
2023-04-05T17:11:35.775Z,100648.53
2023-04-05T17:14:05.967Z,100646.75
2023-04-05T17:16:34.610Z,100634.97
2023-04-05T17:19:03.313Z,100634.25
2023-04-05T17:21:36.088Z,100649.13
2023-04-05T17:24:08.151Z,100652.25
2023-04-05T17:26:36.796Z,100652.03
2023-04-05T17:29:06.346Z,100658.03
2023-04-05T17:31:35.686Z,100656.72
2023-04-05T17:34:04.474Z,100647.84
2023-04-05T17:36:35.479Z,100666.78
2023-04-05T17:39:04.329Z,100662.22
2023-04-05T17:41:33.090Z,100662.31
2023-04-05T17:44:01.836Z,100651.19
2023-04-05T17:46:42.787Z,100658.44
2023-04-05T17:49:13.281Z,100671.00
2023-04-05T17:51:43.253Z,100666.09
2023-04-05T17:54:13.072Z,100675.41
2023-04-05T17:56:41.773Z,100673.72
2023-04-05T17:59:10.502Z,100688.53
2023-04-05T18:01:39.951Z,100694.44
2023-04-05T18:04:11.031Z,100687.50
2023-04-05T18:06:42.659Z,100692.00
2023-04-05T18:09:11.612Z,100690.63
2023-04-05T18:11:40.155Z,100691.63
2023-04-05T18:14:08.748Z,100695.31
2023-04-05T18:16:37.490Z,100704.78
2023-04-05T18:19:06.555Z,100706.44
2023-04-05T18:21:37.353Z,100702.88
2023-04-05T18:24:08.331Z,100696.78
2023-04-05T18:26:37.083Z,100708.88
2023-04-05T18:29:05.815Z,100699.50
2023-04-05T18:31:34.640Z,100714.56
2023-04-05T18:34:06.774Z,100712.38
2023-04-05T18:36:36.270Z,100716.19
2023-04-05T18:39:05.070Z,100717.31
2023-04-05T18:41:35.419Z,100710.09
2023-04-05T18:44:04.056Z,100723.44
2023-04-05T18:46:32.762Z,100711.47
2023-04-05T18:49:02.043Z,100719.72
2023-04-05T18:51:31.323Z,100734.09
2023-04-05T18:53:59.967Z,100731.03
2023-04-05T18:56:28.977Z,100731.69
2023-04-05T18:58:59.154Z,100726.31
2023-04-05T19:01:27.858Z,100731.88
2023-04-05T19:03:56.906Z,100731.56
2023-04-05T19:06:26.468Z,100728.38
2023-04-05T19:08:55.040Z,100733.09
2023-04-05T19:11:25.090Z,100722.06
2023-04-05T19:13:53.873Z,100723.53
2023-04-05T19:16:23.974Z,100732.50
2023-04-05T19:18:53.108Z,100729.63
2023-04-05T19:21:21.899Z,100727.59
2023-04-05T19:23:50.888Z,100735.88
2023-04-05T19:26:21.865Z,100740.69
2023-04-05T19:28:51.341Z,100730.78
2023-04-05T19:31:20.051Z,100730.97
2023-04-05T19:33:50.837Z,100730.63
2023-04-05T19:36:19.523Z,100721.94
2023-04-05T19:38:48.261Z,100724.91
2023-04-05T19:41:16.961Z,100728.69
2023-04-05T19:43:45.540Z,100720.81
2023-04-05T19:46:19.251Z,100715.78
2023-04-05T19:48:48.345Z,100726.06
2023-04-05T19:51:20.613Z,100724.50
2023-04-05T19:53:49.849Z,100728.16
2023-04-05T19:56:21.279Z,100724.97
2023-04-05T19:58:51.354Z,100713.22
2023-04-05T20:01:34.142Z,100714.25
2023-04-05T20:04:04.857Z,100716.22
2023-04-05T20:06:35.611Z,100713.06
2023-04-05T20:09:08.379Z,100718.31
2023-04-05T20:11:37.143Z,100720.19
2023-04-05T20:14:07.328Z,100727.09
2023-04-05T20:16:37.116Z,100718.50
2023-04-05T20:19:08.017Z,100710.81
2023-04-05T20:21:38.742Z,100717.00
2023-04-05T20:24:10.234Z,100708.59
2023-04-05T20:26:40.971Z,100706.09
2023-04-05T20:29:12.244Z,100712.56
2023-04-05T20:31:41.405Z,100695.91
2023-04-05T20:34:11.765Z,100695.66
2023-04-05T20:36:48.458Z,100700.22
2023-04-05T20:39:17.526Z,100695.09
2023-04-05T20:41:46.866Z,100695.28
2023-04-05T20:44:15.319Z,100695.66
2023-04-05T20:46:43.944Z,100687.88
2023-04-05T20:49:12.919Z,100693.91
2023-04-05T20:51:43.317Z,100683.00
2023-04-05T20:54:11.915Z,100685.25
2023-04-05T20:56:41.263Z,100677.50
2023-04-05T20:59:10.168Z,100672.50
2023-04-05T21:01:39.209Z,100672.19
2023-04-05T21:04:10.842Z,100668.84
2023-04-05T21:06:40.027Z,100673.72
2023-04-05T21:09:10.577Z,100689.66
2023-04-05T21:11:39.723Z,100680.59
2023-04-05T21:14:08.736Z,100685.16
2023-04-05T21:16:37.386Z,100677.84
2023-04-05T21:19:06.132Z,100675.78
2023-04-05T21:21:34.974Z,100673.38
2023-04-05T21:24:06.297Z,100690.16
2023-04-05T21:26:36.249Z,100676.31
2023-04-05T21:29:04.724Z,100681.66
2023-04-05T21:31:33.241Z,100688.25
2023-04-05T21:34:01.775Z,100691.97
2023-04-05T21:36:30.264Z,100683.00
2023-04-05T21:38:58.737Z,100691.13
2023-04-05T21:41:27.536Z,100694.94
2023-04-05T21:43:57.832Z,100687.13
2023-04-05T21:46:26.390Z,100690.63
2023-04-05T21:48:54.832Z,100697.88
2023-04-05T21:51:23.517Z,100685.44
2023-04-05T21:53:52.036Z,100682.00
2023-04-05T21:56:20.892Z,100681.06
2023-04-05T21:58:49.367Z,100689.22
2023-04-05T22:01:19.427Z,100689.69
2023-04-05T22:03:48.341Z,100680.09
2023-04-05T22:06:16.859Z,100686.00
2023-04-05T22:08:45.523Z,100671.81
2023-04-05T22:11:14.081Z,100679.31
2023-04-05T22:13:42.515Z,100674.66
2023-04-05T22:16:10.940Z,100676.16
2023-04-05T22:18:40.902Z,100684.00
2023-04-05T22:21:09.467Z,100688.88
2023-04-05T22:23:37.954Z,100670.63
2023-04-05T22:26:06.395Z,100686.63
2023-04-05T22:28:34.917Z,100687.38
2023-04-05T22:31:03.769Z,100688.66
2023-04-05T22:33:32.184Z,100678.00
2023-04-05T22:36:03.508Z,100687.28
2023-04-05T22:38:32.254Z,100686.63
2023-04-05T22:41:00.843Z,100690.25
2023-04-05T22:43:29.377Z,100686.31
2023-04-05T22:45:57.940Z,100691.84
2023-04-05T22:48:26.424Z,100687.88
2023-04-05T22:50:54.926Z,100691.69
2023-04-05T22:53:25.007Z,100692.78
2023-04-05T22:55:53.445Z,100689.53
2023-04-05T22:58:22.792Z,100693.25
2023-04-05T23:00:53.950Z,100680.88
2023-04-05T23:03:22.429Z,100683.38
2023-04-05T23:05:52.403Z,100692.25
2023-04-05T23:08:20.987Z,100692.50
2023-04-05T23:10:51.013Z,100692.59
2023-04-05T23:13:19.542Z,100687.63
2023-04-05T23:15:48.047Z,100673.38
2023-04-05T23:18:22.194Z,100689.16
2023-04-05T23:20:50.708Z,100689.31
2023-04-05T23:23:19.124Z,100692.19
2023-04-05T23:25:47.681Z,100684.59
2023-04-05T23:28:17.577Z,100695.03
2023-04-05T23:30:46.088Z,100690.84
2023-04-05T23:33:14.596Z,100690.06
2023-04-05T23:35:44.236Z,100679.97
2023-04-05T23:38:12.733Z,100681.06
2023-04-05T23:40:41.177Z,100683.09
2023-04-05T23:43:09.580Z,100688.63
2023-04-05T23:45:39.548Z,100680.22
2023-04-05T23:48:08.510Z,100677.50
2023-04-05T23:50:37.092Z,100678.53
2023-04-05T23:53:05.576Z,100686.53
2023-04-05T23:55:35.816Z,100682.41
2023-04-05T23:58:04.295Z,100678.25
